Other Surface Observations
Issued by NWS Missoula, MT

Home | Current Version | Previous Version | Text Only | Print | Product List | Glossary On
Versions: 1 2 3 4 5 6 7 8 9 10 11 12 13 14 15 16 17 18 19 20 21 22 23 24 25 26 27 28 29 30 31 32 33 34 35 36 37 38 39 40 41 42 43 44 45 46 47 48 49 50
000
SXUS55 KMSO 280804
OSOMSO
MONTANA AWOS SUMMARY
NATIONAL WEATHER SERVICE MISSOULA MT
103 AM MST SUN DEC 28 2014

Montana AWOS Reports

ROUNDUP     |KRPX 280755Z AUTO 21010KT 40SM M04/M12 A2978 RMK AO1 T10431116
SCOBEY      |K9S2 280755Z AUTO 08009G13KT 10SM M10/M14 A2994 RMK AO1 T10991143
TWIN BRIDGES|K7S1 280755Z AUTO 14010G14KT 15SM M05/M11 A2988 RMK AO1 T10491110
LAUREL      |K6S8 280755Z AUTO 21010G16KT 40SM M04/M12 A2985 RMK AO1 T10381121
MALTA       |KM75 280755Z AUTO 40SM M10/M13 A2987 RMK AO1 T10991132




USA.gov is the U.S. government's official web portal to all federal, state and local government web resources and services.